Latest Weather Observations for Latrobe Valley

IDV60801

Issued at 11:05 pm EDT Thursday 30 October 2014 (issued every 30 minutes, with the page automatically refreshed every 10 minutes)

About weather observations | Map of weather stations | Latest weather observations for VIC | Other Formats
Station Details ID: 085280 Name: LATROBE VALLEY AIRPORT Lat: -38.21 Lon: 146.47 Height: 55.7 m
Data from the previous 72 hours. | See also: Recent months at Latrobe Valley
Date/Time
EDT
Temp
°C
App
Temp
°C
Dew
Point
Rel
Hum
%
Delta-T
°C
Wind Press
QNH
hPa
Press
MSL
hPa
Rain
since 9 am
mm
Dir
 
Spd
km/h
Gust
km/h
Spd
kts
Gust
kts
30/11:00pm 9.1 7.7 7.1 87 0.9 SW 4 7 2 4 1014.2 1014.1 0.0
30/10:30pm 11.0 9.2 9.3 89 0.9 ESE 9 11 5 6 1014.3 1014.2 0.0
30/10:00pm 11.2 11.1 9.3 88 1.0 CALM 0 4 0 2 1014.2 1014.1 0.0
30/09:30pm 11.4 9.5 9.1 86 1.2 WSW 9 13 5 7 1014.3 1014.2 0.0
30/09:00pm 12.2 12.1 9.4 83 1.4 CALM 0 0 0 0 1014.1 1014.0 0.0
30/08:30pm 13.4 12.8 9.1 75 2.2 SE 2 7 1 4 1013.8 1013.7 0.0
30/08:00pm 14.3 12.4 9.1 71 2.7 SSW 9 13 5 7 1013.8 1013.7 0.0
30/07:30pm 15.2 12.6 9.3 68 3.0 SSW 13 20 7 11 1013.3 1013.2 0.0
30/07:00pm 16.4 12.5 9.6 64 3.6 SW 20 26 11 14 1012.9 1012.9 0.0
30/06:30pm 17.5 14.1 10.4 63 3.8 SW 19 28 10 15 1012.7 1012.7 0.0
30/06:00pm 18.5 14.2 10.8 61 4.2 SW 24 33 13 18 1012.4 1012.4 0.0
30/05:30pm 18.7 14.1 11.0 61 4.2 SSW 26 39 14 21 1012.3 1012.3 0.0
30/05:00pm 20.1 16.6 12.3 61 4.4 SW 22 30 12 16 1012.2 1012.2 0.0
30/04:30pm 20.9 16.9 11.8 56 5.1 SW 24 35 13 19 1012.0 1012.0 0.0
30/04:00pm 21.0 16.9 11.6 55 5.2 WSW 24 35 13 19 1011.8 1011.8 0.0
30/03:30pm 21.5 18.7 13.2 59 4.8 WSW 20 32 11 17 1011.9 1011.9 0.0
30/03:00pm 20.6 16.9 12.6 60 4.5 W 24 33 13 18 1011.9 1011.9 0.0
30/02:30pm 20.8 16.8 13.0 61 4.4 WNW 26 30 14 16 1012.3 1012.3 0.0
30/02:00pm 20.3 16.4 13.3 64 4.0 W 26 32 14 17 1012.6 1012.6 0.0
30/01:30pm 19.3 16.0 12.8 66 3.7 WSW 22 33 12 18 1012.9 1012.9 0.0
30/01:00pm 19.2 15.1 12.7 66 3.7 WSW 26 37 14 20 1013.3 1013.2 0.0
30/12:30pm 19.2 15.3 13.2 68 3.4 W 26 35 14 19 1013.4 1013.3 0.0
30/12:00pm 19.2 15.3 13.4 69 3.3 W 26 32 14 17 1013.6 1013.5 0.0
30/11:30am 17.2 12.6 11.2 68 3.2 WSW 26 33 14 18 1014.2 1014.1 0.0
30/11:00am 16.9 12.3 11.2 69 3.1 WSW 26 37 14 20 1014.5 1014.4 0.0
30/10:30am 15.9 10.7 10.4 70 2.9 WSW 28 39 15 21 1014.9 1014.9 0.0
30/10:00am 15.5 11.2 10.7 73 2.5 W 24 35 13 19 1015.0 1015.0 0.0
30/09:30am 15.4 11.2 11.0 75 2.3 W 24 33 13 18 1014.8 1014.8 0.0
30/09:00am 15.7 11.9 11.3 75 2.4 WSW 22 33 12 18 1014.9 1014.9 0.0
30/08:30am 15.1 13.3 12.2 83 1.6 WSW 13 19 7 10 1015.0 1015.0 0.0
30/08:00am 14.3 12.8 12.0 86 1.2 W 11 15 6 8 1014.7 1014.7 0.0
30/07:30am 12.6 11.4 11.7 94 0.5 WNW 9 11 5 6 1014.7 1014.7 0.0
30/07:00am 11.6 10.6 11.1 97 0.3 WNW 7 9 4 5 1014.3 1014.2 0.0
30/06:30am 12.0 11.3 11.5 97 0.3 WSW 6 7 3 4 1014.1 1014.0 0.0
30/06:00am 11.9 11.0 11.3 96 0.3 WSW 7 7 4 4 1014.3 1014.2 0.0
30/05:30am 11.8 10.5 11.2 96 0.3 WNW 9 9 5 5 1014.1 1014.0 0.0
30/05:00am 11.7 10.4 11.2 97 0.3 W 9 11 5 6 1014.1 1014.0 0.0
30/04:30am 11.6 10.3 11.3 98 0.2 W 9 9 5 5 1014.0 1013.9 0.0
30/04:00am 11.4 9.7 11.2 99 0.1 WNW 11 13 6 7 1014.3 1014.2 0.0
30/03:30am 10.7 8.3 10.2 97 0.3 W 13 17 7 9 1014.4 1014.3 0.0
30/03:00am 11.0 9.4 10.2 95 0.4 W 9 13 5 7 1014.6 1014.5 0.0
30/02:30am 11.7 9.9 10.8 94 0.5 W 11 13 6 7 1014.8 1014.8 0.0
30/02:00am 12.0 11.2 10.9 93 0.6 SW 6 7 3 4 1015.2 1015.2 0.0
30/01:30am 12.2 12.5 10.9 92 0.7 CALM 0 0 0 0 1015.4 1015.4 0.0
30/01:00am 12.2 12.5 10.8 91 0.7 CALM 0 0 0 0 1015.7 1015.7 0.0
30/12:30am 12.3 12.6 10.9 91 0.7 CALM 0 0 0 0 1015.9 1015.9 0.0
30/12:00am 12.1 12.3 10.5 90 0.8 WSW 0 0 0 0 1016.2 1016.2 0.0
 
Date/Time
EDT
Temp
°C
App
Temp
°C
Dew
Point
Rel
Hum
%
Delta-T
°C
Wind Press
QNH
hPa
Press
MSL
hPa
Rain
since 9 am
mm
Dir
 
Spd
km/h
Gust
km/h
Spd
kts
Gust
kts
29/11:30pm 12.4 11.0 10.8 90 0.8 WSW 9 11 5 6 1016.4 1016.4 0.0
29/11:00pm 12.4 11.3 10.6 89 0.9 WSW 7 11 4 6 1016.4 1016.4 0.0
29/10:30pm 12.1 10.5 10.2 88 1.0 WSW 9 9 5 5 1016.6 1016.6 0.0
29/10:00pm 11.8 10.1 9.9 88 1.0 SW 9 13 5 7 1016.6 1016.6 0.0
29/09:30pm 12.0 9.4 9.4 84 1.3 SW 13 15 7 8 1016.4 1016.4 0.0
29/09:00pm 12.6 10.0 9.4 81 1.6 SW 13 22 7 12 1015.8 1015.8 0.0
29/08:30pm 13.7 10.4 9.4 75 2.2 SW 17 22 9 12 1015.5 1015.5 0.0
29/08:00pm 14.6 11.0 9.8 73 2.5 SW 19 26 10 14 1015.3 1015.3 0.0
29/07:30pm 16.0 12.0 10.3 69 3.0 SW 22 28 12 15 1014.9 1014.9 0.0
29/07:00pm 17.5 13.7 9.9 61 4.0 SW 20 26 11 14 1014.5 1014.4 0.0
29/06:30pm 18.2 14.2 10.6 61 4.1 SW 22 30 12 16 1014.3 1014.2 0.0
29/06:00pm 18.8 15.3 10.9 60 4.3 SW 20 28 11 15 1014.0 1013.9 0.0
29/05:30pm 19.0 15.1 10.8 59 4.5 SW 22 32 12 17 1014.0 1013.9 0.0
29/05:00pm 19.4 15.3 11.4 60 4.4 SW 24 33 13 18 1014.0 1013.9 0.0
29/04:30pm 19.7 15.5 11.2 58 4.7 WSW 24 39 13 21 1014.1 1014.0 0.0
29/04:00pm 19.5 15.1 10.5 56 4.9 W 24 35 13 19 1014.4 1014.3 0.0
29/03:30pm 19.5 15.3 11.0 58 4.6 WSW 24 32 13 17 1014.7 1014.7 0.0
29/03:00pm 19.4 15.5 12.2 63 4.0 W 24 33 13 18 1014.9 1014.9 0.0
29/02:30pm 19.1 14.8 12.1 64 3.9 WSW 26 37 14 20 1015.3 1015.3 0.0
29/02:00pm 18.1 13.0 10.7 62 4.0 WSW 28 39 15 21 1015.7 1015.7 0.0
29/01:30pm 17.4 12.2 10.1 62 3.9 WSW 28 37 15 20 1016.1 1016.1 0.0
29/01:00pm 17.3 12.0 10.0 62 3.9 WSW 28 39 15 21 1016.5 1016.5 0.0
29/12:30pm 16.3 10.5 9.3 63 3.6 WSW 30 39 16 21 1016.9 1016.9 0.0
29/12:00pm 15.6 10.8 8.8 64 3.5 W 24 32 13 17 1017.4 1017.4 0.0
29/11:30am 15.7 11.2 8.7 63 3.6 W 22 35 12 19 1017.7 1017.7 0.0
29/11:00am 15.5 11.5 9.2 66 3.2 W 20 28 11 15 1017.8 1017.8 0.0
29/10:30am 14.3 9.8 8.5 68 2.9 W 22 28 12 15 1018.0 1018.0 0.0
29/10:00am 14.8 10.3 10.0 73 2.5 W 24 32 13 17 1018.0 1018.0 0.0
29/09:30am 13.6 8.6 9.6 77 2.1 WNW 26 35 14 19 1018.1 1018.1 0.0
29/09:00am 13.1 9.3 9.7 80 1.7 W 20 28 11 15 1018.1 1018.1 0.0
29/08:30am 12.6 7.9 9.1 79 1.8 W 24 32 13 17 1018.0 1018.0 0.0
29/08:00am 12.6 8.6 9.1 79 1.8 W 20 30 11 16 1017.7 1017.7 0.0
29/07:30am 11.4 8.3 9.0 85 1.2 W 15 19 8 10 1017.7 1017.7 0.0
29/07:00am 11.1 8.3 8.7 85 1.2 W 13 19 7 10 1017.5 1017.5 0.0
29/06:30am 10.8 7.5 8.2 84 1.3 W 15 19 8 10 1017.3 1017.3 0.0
29/06:00am 10.6 7.7 8.2 85 1.2 W 13 17 7 9 1016.9 1016.9 0.0
29/05:30am 10.8 7.1 8.0 83 1.4 W 17 24 9 13 1016.7 1016.7 0.0
29/05:00am 10.7 6.7 8.1 84 1.3 W 19 24 10 13 1016.3 1016.3 0.0
29/04:30am 10.6 6.6 8.2 85 1.2 W 19 26 10 14 1016.2 1016.2 0.0
29/04:00am 10.6 6.5 7.7 82 1.4 WNW 19 26 10 14 1016.2 1016.2 0.0
29/03:30am 10.5 5.7 7.2 80 1.6 W 22 30 12 16 1016.3 1016.3 0.0
29/03:00am 10.5 6.7 7.4 81 1.5 W 17 24 9 13 1016.2 1016.2 0.0
29/02:30am 10.6 6.2 7.5 81 1.5 W 20 30 11 16 1015.9 1015.9 0.0
29/02:00am 10.6 6.0 8.0 84 1.3 W 22 33 12 18 1015.8 1015.8 0.0
29/01:30am 10.9 5.5 8.1 83 1.4 W 26 39 14 21 1015.9 1015.9 0.0
29/01:00am 10.4 5.6 8.8 90 0.8 W 24 33 13 18 1016.0 1016.0 0.0
29/12:30am 10.5 5.6 8.3 86 1.1 W 24 33 13 18 1016.1 1016.1 0.0
29/12:00am 10.6 7.0 8.2 85 1.2 W 17 22 9 12 1016.1 1016.1 0.0
 
Date/Time
EDT
Temp
°C
App
Temp
°C
Dew
Point
Rel
Hum
%
Delta-T
°C
Wind Press
QNH
hPa
Press
MSL
hPa
Rain
since 9 am
mm
Dir
 
Spd
km/h
Gust
km/h
Spd
kts
Gust
kts
28/11:30pm 11.1 6.4 9.2 88 1.0 W 24 39 13 21 1015.8 1015.8 0.0
28/11:23pm 10.9 6.7 9.7 92 0.6 W 22 28 12 15 1015.8 1015.8 0.0
28/11:07pm 11.0 6.7 9.3 89 0.9 WSW 22 33 12 18 1015.6 1015.6 0.0
28/11:00pm 11.9 7.8 8.7 81 1.6 W 20 26 11 14 1015.6 1015.6 0.0
28/10:30pm 12.0 7.4 8.1 77 1.9 WSW 22 28 12 15 1015.2 1015.2 0.0
28/10:00pm 12.2 6.7 7.7 74 2.2 WSW 26 35 14 19 1015.3 1015.3 0.0
28/09:30pm 12.4 6.8 7.3 71 2.5 W 26 39 14 21 1015.1 1015.1 0.0
28/09:00pm 12.5 6.5 7.0 69 2.7 W 28 35 15 19 1014.5 1014.4 0.0
28/08:30pm 12.6 6.1 6.6 67 2.9 W 30 39 16 21 1014.1 1014.0 0.0
28/08:00pm 12.9 6.0 7.1 68 2.8 WSW 33 44 18 24 1013.6 1013.5 0.0
28/07:30pm 13.3 6.1 7.7 69 2.8 WSW 35 48 19 26 1013.0 1013.0 0.0
28/07:12pm 13.5 5.6 7.9 69 2.8 WSW 39 57 21 31 1012.6 1012.6 0.0
28/07:00pm 13.6 4.9 7.6 67 3.0 WSW 43 57 23 31 1012.3 1012.3 0.0
28/06:30pm 14.1 7.1 8.3 68 2.9 WSW 35 48 19 26 1011.8 1011.8 0.0
28/06:02pm 15.0 6.4 8.0 63 3.5 WSW 43 61 23 33 1011.5 1011.5 0.0
28/06:00pm 15.1 6.9 8.1 63 3.5 WSW 41 54 22 29 1011.5 1011.5 0.0
28/05:30pm 15.3 5.7 7.8 61 3.8 WSW 48 61 26 33 1010.7 1010.7 0.0
28/05:04pm 17.1 7.7 7.2 52 5.0 W 46 67 25 36 1010.1 1010.1 0.0
28/05:00pm 17.4 8.2 8.0 54 4.8 W 46 61 25 33 1010.0 1010.0 0.0
28/04:30pm 17.6 7.7 8.2 54 4.8 W 50 82 27 44 1009.7 1009.7 0.0
28/04:00pm 17.5 6.5 7.0 50 5.3 W 54 74 29 40 1009.4 1009.4 0.0
28/03:30pm 17.2 6.8 7.8 54 4.8 W 52 74 28 40 1009.5 1009.5 0.0
28/03:00pm 17.2 9.2 10.6 65 3.5 W 43 65 23 35 1009.4 1009.4 0.0
28/02:47pm 16.0 7.8 9.7 66 3.3 W 43 74 23 40 1009.5 1009.5 0.0
28/02:37pm 15.9 10.4 12.3 79 2.0 W 33 52 18 28 1009.3 1009.3 0.0
28/02:30pm 14.6 9.8 12.8 89 1.0 W 30 37 16 20 1009.7 1009.7 0.0
28/02:02pm 16.1 8.6 13.9 87 1.2 W 46 67 25 36 1009.8 1009.8 0.0
28/02:00pm 15.2 5.8 12.7 85 1.4 W 54 67 29 36 1009.7 1009.7 0.0
28/01:48pm 13.8 8.5 12.5 92 0.7 W 32 54 17 29 1009.6 1009.6 0.0
28/01:39pm 13.8 8.7 13.2 96 0.3 W 32 43 17 23 1009.3 1009.3 0.0
28/01:30pm 14.1 8.3 13.8 98 0.2 WSW 37 50 20 27 1009.2 1009.2 0.0
28/01:16pm 13.9 6.7 11.8 87 1.1 W 41 57 22 31 1008.9 1008.9 0.0
28/01:01pm 16.0 8.4 11.8 76 2.3 W 43 61 23 33 1008.9 1008.9 0.0
28/01:00pm 16.3 9.0 12.7 79 2.0 W 43 59 23 32 1008.9 1008.9 0.0
28/12:54pm 15.2 7.8 12.3 83 1.6 W 43 59 23 32 1009.0 1009.0 0.0
28/12:30pm 13.7 6.1 12.3 91 0.8 W 44 65 24 35 1009.4 1009.4 0.0
28/12:27pm 13.8 4.8 11.7 87 1.1 W 50 69 27 37 1009.3 1009.3 0.0
28/12:25pm 14.1 5.1 11.6 85 1.3 W 50 69 27 37 1009.3 1009.3 0.0
28/12:19pm 14.6 3.9 10.4 76 2.2 WNW 57 69 31 37 1009.0 1009.0 0.0
28/12:02pm 15.7 9.0 10.9 73 2.6 W 37 65 20 35 1008.8 1008.8 0.0
28/12:00pm 15.2 8.9 11.2 77 2.1 W 35 48 19 26 1008.8 1008.8 0.0
28/11:56am 14.2 8.1 11.9 86 1.2 W 35 46 19 25 1009.0 1009.0 0.0
28/11:47am 13.9 2.6 9.5 75 2.3 W 59 78 32 42 1009.1 1009.1 0.0
28/11:45am 14.2 2.4 9.0 71 2.6 W 61 78 33 42 1009.0 1009.0 0.0
28/11:30am 16.0 8.8 10.5 70 2.9 WNW 39 65 21 35 1008.6 1008.6 0.0
28/11:11am 14.3 6.9 11.1 81 1.7 W 41 59 22 32 1008.8 1008.8 0.0
28/11:06am 13.9 6.8 12.1 89 1.0 W 41 57 22 31 1008.9 1008.9 0.0
28/11:00am 12.9 5.2 10.1 83 1.4 W 41 57 22 31 1008.9 1008.9 0.0
28/10:45am 12.7 3.2 9.9 83 1.4 W 50 72 27 39 1009.0 1009.0 0.0
28/10:32am 13.6 5.5 8.7 72 2.5 W 41 59 22 32 1008.6 1008.6 0.0
28/10:30am 14.1 6.7 8.5 69 2.8 W 37 48 20 26 1008.6 1008.6 0.0
28/10:00am 15.1 5.0 8.8 66 3.2 W 52 74 28 40 1008.5 1008.5 0.0
28/09:30am 14.6 5.6 8.8 68 2.9 W 46 67 25 36 1008.6 1008.6 0.0
28/09:11am 14.1 6.1 7.4 64 3.3 W 39 82 21 44 1008.4 1008.4 0.0
28/09:00am 14.4 7.6 7.9 65 3.2 W 33 52 18 28 1008.2 1008.2 11.8
28/08:30am 14.2 6.6 7.5 64 3.3 WNW 37 57 20 31 1008.2 1008.2 11.8
28/08:00am 13.0 4.9 7.2 68 2.8 W 39 61 21 33 1008.2 1008.2 11.8
28/07:46am 13.5 5.5 7.3 66 3.0 W 39 57 21 31 1007.9 1007.9 11.8
28/07:30am 13.4 5.7 7.0 65 3.1 W 37 50 20 27 1007.8 1007.8 11.8
28/07:00am 11.8 5.6 6.3 69 2.6 W 28 35 15 19 1007.8 1007.8 11.8
28/06:30am 11.2 4.1 5.3 67 2.7 W 32 44 17 24 1007.8 1007.8 11.8
28/06:00am 11.0 3.5 4.5 64 2.9 WNW 33 52 18 28 1007.5 1007.5 11.8
28/05:59am 11.1 3.6 4.6 64 2.9 WNW 33 52 18 28 1007.4 1007.4 11.8
28/05:30am 10.9 2.3 4.8 66 2.8 WNW 39 52 21 28 1007.5 1007.5 11.8
28/05:00am 10.7 3.4 4.4 65 2.8 WNW 32 43 17 23 1007.7 1007.7 11.8
28/04:30am 10.3 2.8 4.5 67 2.6 WNW 33 48 18 26 1007.9 1007.9 11.8
28/04:00am 10.2 3.0 5.0 70 2.4 W 32 43 17 23 1008.2 1008.2 11.8
28/03:34am 10.3 3.9 5.3 71 2.3 W 28 50 15 27 1008.2 1008.2 11.8
28/03:30am 10.3 4.3 5.3 71 2.3 W 26 43 14 23 1008.3 1008.3 11.8
28/03:00am 10.5 4.6 5.9 73 2.1 W 26 41 14 22 1008.5 1008.5 11.8
28/02:30am 9.8 5.4 6.5 80 1.5 W 19 24 10 13 1008.8 1008.8 11.8
28/02:00am 10.2 5.5 6.2 76 1.9 W 20 37 11 20 1009.2 1009.2 11.8
28/01:30am 11.0 5.5 6.0 71 2.3 W 24 33 13 18 1009.8 1009.8 11.8
28/01:00am 10.5 5.7 5.5 71 2.3 W 20 30 11 16 1010.1 1010.1 11.8
28/12:30am 10.7 5.2 6.1 73 2.1 W 24 32 13 17 1010.6 1010.6 11.8
28/12:00am 10.3 4.8 5.9 74 2.0 W 24 30 13 16 1010.6 1010.6 11.8
 
Date/Time
EDT
Temp
°C
App
Temp
°C
Dew
Point
Rel
Hum
%
Delta-T
°C
Wind Press
QNH
hPa
Press
MSL
hPa
Rain
since 9 am
mm
Dir
 
Spd
km/h
Gust
km/h
Spd
kts
Gust
kts
27/11:30pm 10.5 4.7 6.1 74 2.0 W 26 33 14 18 1010.9 1010.9 11.8

Other Formats:

Comma delimited format used in spreadsheet applications
http://www.bom.gov.au/fwo/IDV60801/IDV60801.94891.axf

JavaScript Object Notation format (JSON) in row-major order
http://www.bom.gov.au/fwo/IDV60801/IDV60801.94891.json